createdAt,value
2019-03-19T00:00:11.988Z,5.90
2019-03-19T00:02:40.535Z,6.00
2019-03-19T00:05:08.986Z,5.90
2019-03-19T00:07:37.573Z,6.00
2019-03-19T00:10:10.518Z,5.90
2019-03-19T00:12:38.942Z,5.90
2019-03-19T00:15:09.566Z,5.90
2019-03-19T00:17:37.922Z,5.90
2019-03-19T00:20:09.707Z,5.90
2019-03-19T00:22:38.140Z,5.90
2019-03-19T00:25:07.176Z,5.90
2019-03-19T00:27:35.987Z,5.90
2019-03-19T00:30:06.231Z,5.80
2019-03-19T00:32:34.044Z,5.70
2019-03-19T00:35:02.720Z,5.70
2019-03-19T00:37:31.404Z,5.70
2019-03-19T00:39:59.850Z,5.80
2019-03-19T00:42:30.285Z,5.80
2019-03-19T00:44:58.901Z,5.80
2019-03-19T00:47:27.567Z,5.80
2019-03-19T00:49:56.053Z,5.80
2019-03-19T00:52:24.532Z,5.80
2019-03-19T00:54:52.995Z,5.70
2019-03-19T00:57:21.640Z,5.70
2019-03-19T00:59:50.088Z,5.70
2019-03-19T01:02:18.600Z,5.70
2019-03-19T01:04:47.029Z,5.70
2019-03-19T01:07:15.613Z,5.70
2019-03-19T01:09:44.089Z,5.70
2019-03-19T01:12:12.539Z,5.80
2019-03-19T01:14:41.029Z,5.80
2019-03-19T01:17:09.455Z,5.70
2019-03-19T01:19:37.814Z,5.80
2019-03-19T01:22:06.186Z,5.70
2019-03-19T01:24:36.722Z,5.50
2019-03-19T01:27:05.131Z,5.50
2019-03-19T01:29:33.594Z,5.50
2019-03-19T01:32:02.194Z,5.40
2019-03-19T01:34:30.640Z,5.30
2019-03-19T01:36:59.098Z,5.30
2019-03-19T01:39:27.543Z,5.30
2019-03-19T01:41:56.055Z,5.40
2019-03-19T01:44:24.595Z,5.40
2019-03-19T01:46:53.012Z,5.40
2019-03-19T01:49:21.453Z,5.50
2019-03-19T01:51:50.019Z,5.60
2019-03-19T01:54:18.372Z,5.60
2019-03-19T01:56:46.897Z,5.60
2019-03-19T01:59:15.347Z,5.60
2019-03-19T02:01:43.739Z,5.70
2019-03-19T02:04:12.208Z,5.70
2019-03-19T02:06:40.626Z,5.70
2019-03-19T02:09:09.893Z,5.60
2019-03-19T02:11:38.598Z,5.70
2019-03-19T02:14:07.267Z,5.70
2019-03-19T02:16:35.675Z,5.70
2019-03-19T02:19:04.336Z,5.60
2019-03-19T02:21:32.868Z,5.70
2019-03-19T02:24:01.418Z,5.70
2019-03-19T02:26:29.882Z,5.70
2019-03-19T02:28:58.293Z,5.60
2019-03-19T02:31:26.769Z,5.70
2019-03-19T02:33:55.336Z,5.70
2019-03-19T02:36:24.082Z,5.80
2019-03-19T02:38:52.597Z,5.80
2019-03-19T02:41:24.008Z,5.80
2019-03-19T02:43:52.568Z,5.80
2019-03-19T02:46:21.055Z,5.80
2019-03-19T02:48:49.465Z,5.80
2019-03-19T02:51:17.917Z,5.90
2019-03-19T02:53:46.324Z,5.80
2019-03-19T02:56:14.929Z,5.70
2019-03-19T02:58:43.503Z,5.70
2019-03-19T03:01:11.968Z,5.70
2019-03-19T03:03:41.646Z,5.70
2019-03-19T03:06:09.996Z,5.80
2019-03-19T03:08:38.360Z,5.70
2019-03-19T03:11:06.813Z,5.60
2019-03-19T03:13:35.226Z,5.50
2019-03-19T03:16:03.776Z,5.60
2019-03-19T03:18:32.212Z,5.60
2019-03-19T03:21:00.597Z,5.60
2019-03-19T03:23:29.121Z,5.60
2019-03-19T03:25:57.629Z,5.50
2019-03-19T03:28:26.276Z,5.40
2019-03-19T03:30:54.825Z,5.40
2019-03-19T03:33:23.349Z,5.40
2019-03-19T03:35:51.790Z,5.30
2019-03-19T03:38:20.330Z,5.30
2019-03-19T03:40:48.949Z,5.30
2019-03-19T03:43:17.397Z,5.30
2019-03-19T03:45:45.746Z,5.30
2019-03-19T03:48:14.182Z,5.40
2019-03-19T03:50:42.671Z,5.30
2019-03-19T03:53:11.298Z,5.40
2019-03-19T03:55:39.681Z,5.40
2019-03-19T03:58:08.394Z,5.40
2019-03-19T04:00:36.827Z,5.30
2019-03-19T04:03:05.375Z,5.40
2019-03-19T04:05:34.068Z,5.40
2019-03-19T04:08:02.531Z,5.50
2019-03-19T04:10:30.979Z,5.40
2019-03-19T04:12:59.497Z,5.40
2019-03-19T04:15:27.925Z,5.50
2019-03-19T04:17:56.540Z,5.50
2019-03-19T04:20:25.050Z,5.40
2019-03-19T04:22:53.641Z,5.50
2019-03-19T04:25:22.131Z,5.40
2019-03-19T04:27:50.619Z,5.40
2019-03-19T04:30:19.999Z,5.50
2019-03-19T04:32:48.631Z,5.60
2019-03-19T04:35:17.122Z,5.60
2019-03-19T04:37:45.786Z,5.70
2019-03-19T04:40:21.969Z,5.60
2019-03-19T04:42:53.442Z,5.70
2019-03-19T04:45:21.883Z,5.60
2019-03-19T04:47:50.319Z,5.70
2019-03-19T04:50:18.809Z,5.70
2019-03-19T04:52:47.263Z,5.70
2019-03-19T04:55:16.565Z,5.70
2019-03-19T04:57:45.057Z,5.70
2019-03-19T05:00:15.996Z,5.70
2019-03-19T05:02:44.363Z,5.80
2019-03-19T05:05:14.375Z,5.80
2019-03-19T05:07:42.903Z,5.80
2019-03-19T05:10:18.186Z,5.80
2019-03-19T05:12:46.556Z,5.80
2019-03-19T05:15:15.178Z,5.80
2019-03-19T05:17:43.597Z,5.80
2019-03-19T05:20:15.449Z,5.80
2019-03-19T05:22:44.005Z,5.80
2019-03-19T05:25:12.441Z,5.80
2019-03-19T05:27:40.908Z,5.70
2019-03-19T05:30:19.063Z,5.80
2019-03-19T05:32:47.391Z,5.80
2019-03-19T05:35:15.893Z,5.80
2019-03-19T05:37:47.584Z,5.70
2019-03-19T05:40:16.982Z,5.70
2019-03-19T05:42:45.561Z,5.70
2019-03-19T05:45:14.775Z,5.60
2019-03-19T05:47:43.576Z,5.60
2019-03-19T05:50:16.627Z,5.60
2019-03-19T05:52:45.145Z,5.50
2019-03-19T05:55:13.586Z,5.60
2019-03-19T05:57:49.388Z,5.60
2019-03-19T06:00:12.489Z,5.60
2019-03-19T06:02:40.945Z,5.60
2019-03-19T06:05:13.469Z,5.60
2019-03-19T06:07:41.904Z,5.60
2019-03-19T06:10:14.298Z,5.60
2019-03-19T06:12:42.779Z,5.60
2019-03-19T06:15:14.845Z,5.60
2019-03-19T06:17:43.328Z,5.60
2019-03-19T06:20:21.026Z,5.60
2019-03-19T06:22:49.407Z,5.70
2019-03-19T06:25:17.842Z,5.70
2019-03-19T06:27:46.312Z,5.80
2019-03-19T06:30:18.659Z,5.90
2019-03-19T06:32:47.122Z,5.90
2019-03-19T06:35:16.221Z,5.90
2019-03-19T06:37:44.540Z,5.80
2019-03-19T06:40:17.936Z,5.80
2019-03-19T06:42:46.402Z,5.80
2019-03-19T06:45:19.733Z,5.80
2019-03-19T06:47:48.160Z,5.70
2019-03-19T06:50:18.790Z,5.70
2019-03-19T06:52:47.134Z,5.70
2019-03-19T06:55:16.829Z,5.80
2019-03-19T06:57:45.221Z,5.80
2019-03-19T07:00:15.824Z,5.90
2019-03-19T07:02:44.354Z,5.90
2019-03-19T07:05:12.847Z,5.90
2019-03-19T07:07:41.314Z,5.90
2019-03-19T07:10:18.481Z,5.80
2019-03-19T07:12:46.933Z,5.90
2019-03-19T07:15:22.245Z,5.90
2019-03-19T07:17:50.730Z,5.90
2019-03-19T07:20:24.393Z,5.80
2019-03-19T07:22:52.769Z,6.00
2019-03-19T07:25:21.440Z,6.00
2019-03-19T07:27:49.843Z,6.00
2019-03-19T07:30:19.239Z,5.90
2019-03-19T07:32:47.690Z,6.10
2019-03-19T07:35:16.138Z,6.20
2019-03-19T07:37:44.491Z,6.30
2019-03-19T07:40:16.472Z,6.40
2019-03-19T07:42:45.001Z,6.40
2019-03-19T07:45:18.289Z,6.40
2019-03-19T07:47:46.884Z,6.40
2019-03-19T07:50:22.820Z,6.40
2019-03-19T07:52:51.451Z,6.50
2019-03-19T07:55:19.864Z,6.50
2019-03-19T07:57:48.275Z,6.50
2019-03-19T08:00:18.764Z,6.60
2019-03-19T08:02:47.325Z,6.40
2019-03-19T08:05:15.912Z,6.30
2019-03-19T08:07:44.384Z,6.40
2019-03-19T08:10:17.808Z,6.50
2019-03-19T08:12:46.235Z,6.50
2019-03-19T08:15:19.726Z,6.50
2019-03-19T08:17:48.094Z,6.50
2019-03-19T08:20:17.330Z,6.60
2019-03-19T08:22:45.816Z,6.70
2019-03-19T08:25:14.842Z,6.70
2019-03-19T08:27:43.250Z,6.80
2019-03-19T08:30:19.360Z,6.80
2019-03-19T08:32:47.770Z,6.90
2019-03-19T08:35:16.251Z,6.90
2019-03-19T08:37:45.627Z,7.00
2019-03-19T08:40:17.892Z,7.00
2019-03-19T08:42:46.540Z,7.20
2019-03-19T08:45:17.341Z,7.20
2019-03-19T08:47:45.737Z,7.30
2019-03-19T08:50:16.069Z,7.30
2019-03-19T08:52:43.877Z,7.50
2019-03-19T08:55:12.361Z,7.60
2019-03-19T08:57:40.828Z,7.60
2019-03-19T09:00:21.553Z,7.50
2019-03-19T09:02:49.931Z,7.60
2019-03-19T09:05:19.737Z,7.60
2019-03-19T09:07:48.194Z,7.60
2019-03-19T09:10:17.624Z,7.70
2019-03-19T09:12:48.209Z,7.80
2019-03-19T09:15:18.722Z,7.80
2019-03-19T09:17:47.145Z,7.80
2019-03-19T09:20:17.755Z,7.80
2019-03-19T09:22:46.161Z,7.90
2019-03-19T09:25:14.679Z,8.00
2019-03-19T09:27:44.528Z,8.00
2019-03-19T09:30:16.184Z,8.10
2019-03-19T09:32:44.581Z,8.20
2019-03-19T09:35:13.004Z,8.30
2019-03-19T09:37:46.254Z,8.20
2019-03-19T09:40:16.066Z,8.30
2019-03-19T09:42:44.495Z,8.40
2019-03-19T09:45:13.805Z,8.40
2019-03-19T09:47:42.185Z,8.40
2019-03-19T09:50:13.167Z,8.50
2019-03-19T09:52:41.559Z,8.50
2019-03-19T09:55:11.610Z,8.50
2019-03-19T09:57:40.147Z,8.40
2019-03-19T10:00:18.002Z,8.40
2019-03-19T10:02:46.137Z,8.50
2019-03-19T10:05:14.479Z,8.30
2019-03-19T10:07:42.967Z,8.30
2019-03-19T10:10:23.282Z,8.30
2019-03-19T10:12:51.306Z,8.50
2019-03-19T10:15:20.592Z,8.70
2019-03-19T10:17:49.004Z,8.80
2019-03-19T10:20:19.770Z,8.90
2019-03-19T10:22:49.418Z,8.90
2019-03-19T10:25:17.822Z,8.90
2019-03-19T10:27:46.276Z,9.00
2019-03-19T10:30:25.303Z,9.10
2019-03-19T10:32:53.810Z,9.10
2019-03-19T10:35:22.248Z,9.20
2019-03-19T10:37:50.665Z,9.20
2019-03-19T10:40:22.198Z,9.30
2019-03-19T10:42:50.784Z,9.30
2019-03-19T10:45:23.881Z,9.10
2019-03-19T10:47:52.378Z,9.00
2019-03-19T10:50:24.275Z,8.90
2019-03-19T10:52:52.663Z,9.00
2019-03-19T10:55:21.025Z,9.00
2019-03-19T10:57:49.508Z,9.00
2019-03-19T11:00:22.267Z,9.20
2019-03-19T11:02:50.769Z,9.30
2019-03-19T11:05:19.867Z,9.50
2019-03-19T11:07:48.413Z,9.60
2019-03-19T11:10:17.469Z,9.60
2019-03-19T11:12:46.088Z,9.50
2019-03-19T11:15:17.195Z,9.40
2019-03-19T11:17:45.641Z,9.50
2019-03-19T11:20:18.855Z,9.60
2019-03-19T11:22:47.357Z,9.70
2019-03-19T11:25:28.645Z,9.90
2019-03-19T11:27:57.119Z,10.20
2019-03-19T11:30:26.568Z,10.20
2019-03-19T11:32:55.039Z,10.20
2019-03-19T11:35:23.497Z,10.20
2019-03-19T11:37:51.906Z,10.30
2019-03-19T11:40:21.026Z,10.40
2019-03-19T11:42:49.648Z,10.50
2019-03-19T11:45:25.583Z,10.50
2019-03-19T11:47:54.003Z,10.60
2019-03-19T11:50:28.095Z,10.50
2019-03-19T11:52:56.559Z,10.50
2019-03-19T11:55:24.971Z,10.60
2019-03-19T11:57:53.476Z,10.60
2019-03-19T12:00:43.255Z,10.60
2019-03-19T12:03:16.093Z,10.40
2019-03-19T12:05:41.797Z,10.20
2019-03-19T12:08:10.297Z,9.80
2019-03-19T12:10:38.768Z,9.50
2019-03-19T12:13:07.161Z,9.50
2019-03-19T12:15:35.611Z,9.40
2019-03-19T12:18:05.108Z,9.40
2019-03-19T12:20:33.576Z,9.50
2019-03-19T12:23:02.086Z,9.40
2019-03-19T12:25:31.350Z,9.40
2019-03-19T12:28:00.110Z,9.40
2019-03-19T12:30:28.709Z,9.40
2019-03-19T12:32:57.305Z,9.40
2019-03-19T12:35:25.779Z,9.40
2019-03-19T12:37:54.199Z,9.40
2019-03-19T12:40:35.734Z,9.50
2019-03-19T12:42:54.672Z,9.70
2019-03-19T12:45:24.039Z,9.90
2019-03-19T12:47:52.438Z,10.00
2019-03-19T12:50:24.668Z,10.20
2019-03-19T12:52:53.163Z,10.50
2019-03-19T12:55:21.532Z,10.80
2019-03-19T12:57:50.167Z,10.80
2019-03-19T13:00:34.301Z,10.70
2019-03-19T13:02:55.592Z,10.50
2019-03-19T13:05:24.103Z,10.50
2019-03-19T13:07:52.516Z,10.60
2019-03-19T13:10:24.603Z,10.60
2019-03-19T13:12:53.052Z,10.60
2019-03-19T13:15:21.493Z,10.60
2019-03-19T13:17:50.037Z,10.60
2019-03-19T13:20:19.507Z,10.50
2019-03-19T13:22:47.896Z,10.60
2019-03-19T13:25:25.984Z,10.50
2019-03-19T13:27:54.305Z,10.20
2019-03-19T13:30:23.952Z,10.00
2019-03-19T13:32:52.387Z,9.90
2019-03-19T13:35:20.873Z,9.90
2019-03-19T13:37:49.251Z,9.90
2019-03-19T13:40:18.314Z,10.00
2019-03-19T13:42:46.791Z,10.00
2019-03-19T13:45:20.566Z,9.90
2019-03-19T13:47:50.095Z,10.00
2019-03-19T13:50:19.295Z,10.10
2019-03-19T13:52:47.840Z,10.00
2019-03-19T13:55:17.567Z,9.90
2019-03-19T13:57:46.187Z,9.70
2019-03-19T14:00:20.296Z,9.60
2019-03-19T14:02:48.952Z,9.50
2019-03-19T14:05:19.120Z,9.40
2019-03-19T14:07:48.193Z,9.50
2019-03-19T14:10:20.600Z,9.60
2019-03-19T14:12:50.780Z,9.60
2019-03-19T14:15:20.381Z,9.90
2019-03-19T14:17:49.103Z,10.10
2019-03-19T14:20:17.651Z,10.10
2019-03-19T14:22:46.200Z,10.10
2019-03-19T14:25:18.197Z,10.20
2019-03-19T14:27:46.683Z,10.40
2019-03-19T14:30:19.117Z,10.40
2019-03-19T14:32:47.694Z,10.30
2019-03-19T14:35:16.270Z,10.30
2019-03-19T14:37:44.770Z,10.30
2019-03-19T14:40:23.447Z,10.50
2019-03-19T14:42:52.011Z,10.80
2019-03-19T14:45:20.797Z,11.20
2019-03-19T14:47:49.392Z,11.50
2019-03-19T14:50:19.256Z,11.80
2019-03-19T14:52:47.794Z,11.80
2019-03-19T14:55:16.378Z,12.00
2019-03-19T14:57:44.787Z,11.90
2019-03-19T15:00:22.808Z,11.90
2019-03-19T15:02:51.298Z,12.00
2019-03-19T15:05:20.076Z,11.70
2019-03-19T15:07:48.654Z,11.60
2019-03-19T15:10:20.209Z,11.30
2019-03-19T15:12:48.604Z,11.60
2019-03-19T15:15:18.152Z,12.20
2019-03-19T15:17:46.565Z,12.90
2019-03-19T15:20:23.232Z,13.70
2019-03-19T15:22:51.704Z,14.40
2019-03-19T15:25:23.100Z,14.70
2019-03-19T15:27:51.638Z,14.80
2019-03-19T15:30:20.831Z,14.50
2019-03-19T15:32:49.445Z,14.10
2019-03-19T15:35:18.068Z,13.70
2019-03-19T15:37:46.585Z,13.00
2019-03-19T15:40:16.420Z,12.40
2019-03-19T15:42:44.989Z,12.10
2019-03-19T15:45:17.958Z,11.70
2019-03-19T15:47:46.448Z,11.50
2019-03-19T15:50:15.832Z,11.30
2019-03-19T15:52:44.507Z,11.00
2019-03-19T15:55:14.543Z,10.90
2019-03-19T15:57:43.122Z,10.80
2019-03-19T16:00:18.847Z,10.70
2019-03-19T16:02:47.284Z,10.60
2019-03-19T16:05:15.808Z,10.70
2019-03-19T16:07:44.186Z,10.60
2019-03-19T16:10:15.046Z,10.70
2019-03-19T16:12:43.486Z,10.70
2019-03-19T16:15:14.563Z,10.70
2019-03-19T16:17:42.935Z,10.60
2019-03-19T16:20:15.878Z,10.60
2019-03-19T16:22:44.393Z,10.60
2019-03-19T16:25:12.984Z,10.60
2019-03-19T16:27:41.350Z,10.60
2019-03-19T16:30:14.550Z,10.50
2019-03-19T16:32:42.953Z,10.30
2019-03-19T16:35:12.762Z,10.20
2019-03-19T16:37:41.202Z,10.10
2019-03-19T16:40:17.508Z,10.00
2019-03-19T16:42:46.168Z,10.00
2019-03-19T16:45:14.597Z,10.00
2019-03-19T16:47:43.062Z,10.00
2019-03-19T16:50:13.681Z,10.00
2019-03-19T16:52:42.117Z,10.00
2019-03-19T16:55:15.194Z,10.00
2019-03-19T16:57:43.583Z,10.00
2019-03-19T17:00:19.231Z,9.80
2019-03-19T17:02:47.710Z,9.70
2019-03-19T17:05:17.313Z,9.60
2019-03-19T17:07:45.725Z,9.50
2019-03-19T17:10:19.142Z,9.40
2019-03-19T17:12:47.613Z,9.30
2019-03-19T17:15:17.286Z,9.30
2019-03-19T17:17:45.741Z,9.20
2019-03-19T17:20:15.574Z,9.20
2019-03-19T17:22:44.016Z,9.20
2019-03-19T17:25:15.001Z,9.10
2019-03-19T17:27:43.422Z,9.00
2019-03-19T17:30:17.157Z,9.00
2019-03-19T17:32:45.381Z,9.00
2019-03-19T17:35:13.813Z,8.90
2019-03-19T17:37:42.425Z,8.90
2019-03-19T17:40:13.091Z,8.80
2019-03-19T17:42:41.600Z,8.80
2019-03-19T17:45:11.994Z,8.80
2019-03-19T17:47:40.435Z,8.70
2019-03-19T17:50:14.793Z,8.70
2019-03-19T17:52:43.255Z,8.70
2019-03-19T17:55:14.824Z,8.60
2019-03-19T17:57:43.335Z,8.60
2019-03-19T18:00:16.070Z,8.50
2019-03-19T18:02:44.391Z,8.50
2019-03-19T18:05:13.121Z,8.40
2019-03-19T18:07:41.526Z,8.40
2019-03-19T18:10:12.141Z,8.30
2019-03-19T18:12:41.521Z,8.30
2019-03-19T18:15:16.099Z,8.30
2019-03-19T18:17:44.448Z,8.30
2019-03-19T18:20:17.583Z,8.20
2019-03-19T18:22:46.034Z,8.20
2019-03-19T18:25:18.426Z,8.20
2019-03-19T18:27:47.147Z,8.20
2019-03-19T18:30:23.545Z,8.10
2019-03-19T18:32:51.998Z,8.10
2019-03-19T18:35:20.372Z,8.10
2019-03-19T18:37:48.792Z,8.00
2019-03-19T18:40:18.572Z,8.00
2019-03-19T18:42:47.352Z,8.00
2019-03-19T18:45:19.087Z,8.00
2019-03-19T18:47:48.126Z,7.90
2019-03-19T18:50:21.786Z,7.90
2019-03-19T18:52:50.172Z,7.90
2019-03-19T18:55:18.686Z,7.90
2019-03-19T18:57:47.149Z,7.90
2019-03-19T19:00:22.460Z,7.80
2019-03-19T19:02:51.323Z,7.80
2019-03-19T19:05:24.123Z,7.80
2019-03-19T19:07:52.601Z,7.70
2019-03-19T19:10:21.784Z,7.70
2019-03-19T19:12:50.947Z,7.70
2019-03-19T19:15:24.258Z,7.70
2019-03-19T19:17:52.819Z,7.60
2019-03-19T19:20:21.341Z,7.60
2019-03-19T19:22:49.820Z,7.50
2019-03-19T19:25:23.951Z,7.50
2019-03-19T19:27:52.389Z,7.50
2019-03-19T19:30:26.167Z,7.40
2019-03-19T19:33:01.484Z,7.40
2019-03-19T19:35:24.606Z,7.40
2019-03-19T19:37:53.390Z,7.40
2019-03-19T19:40:22.363Z,7.40
2019-03-19T19:42:51.975Z,7.30
2019-03-19T19:45:20.305Z,7.30
2019-03-19T19:47:48.668Z,7.30
2019-03-19T19:50:20.932Z,7.20
2019-03-19T19:52:49.350Z,7.20
2019-03-19T19:55:17.729Z,7.10
2019-03-19T19:57:46.110Z,7.00
2019-03-19T20:00:17.955Z,7.00
2019-03-19T20:02:46.324Z,7.00
2019-03-19T20:05:14.715Z,6.90
2019-03-19T20:07:43.068Z,6.90
2019-03-19T20:10:22.664Z,6.80
2019-03-19T20:12:51.130Z,6.80
2019-03-19T20:15:19.995Z,6.70
2019-03-19T20:17:48.318Z,6.70
2019-03-19T20:20:18.696Z,6.60
2019-03-19T20:22:46.322Z,6.60
2019-03-19T20:25:14.916Z,6.60
2019-03-19T20:27:43.451Z,6.60
2019-03-19T20:30:19.664Z,6.50
2019-03-19T20:32:48.051Z,6.50
2019-03-19T20:35:16.389Z,6.50
2019-03-19T20:37:44.822Z,6.50
2019-03-19T20:40:17.807Z,6.50
2019-03-19T20:42:46.405Z,6.50
2019-03-19T20:45:17.142Z,6.60
2019-03-19T20:47:45.597Z,6.50
2019-03-19T20:50:16.972Z,6.50
2019-03-19T20:52:48.391Z,6.50
2019-03-19T20:55:16.872Z,6.40
2019-03-19T20:57:45.282Z,6.50
2019-03-19T21:00:18.204Z,6.40
2019-03-19T21:02:46.590Z,6.40
2019-03-19T21:05:15.161Z,6.40
2019-03-19T21:07:43.683Z,6.40
2019-03-19T21:10:15.055Z,6.30
2019-03-19T21:12:43.544Z,6.30
2019-03-19T21:15:16.976Z,6.20
2019-03-19T21:17:45.516Z,6.20
2019-03-19T21:20:13.867Z,6.20
2019-03-19T21:22:42.423Z,6.20
2019-03-19T21:25:11.244Z,6.10
2019-03-19T21:27:39.633Z,6.10
2019-03-19T21:30:11.044Z,6.10
2019-03-19T21:32:39.754Z,6.00
2019-03-19T21:35:08.507Z,6.00
2019-03-19T21:37:36.985Z,6.00
2019-03-19T21:40:10.807Z,5.90
2019-03-19T21:42:38.801Z,5.90
2019-03-19T21:45:10.248Z,5.90
2019-03-19T21:47:38.775Z,5.80
2019-03-19T21:50:10.384Z,5.80
2019-03-19T21:52:41.544Z,5.80
2019-03-19T21:55:19.149Z,5.70
2019-03-19T21:57:47.775Z,5.70
2019-03-19T22:00:22.353Z,5.70
2019-03-19T22:02:56.446Z,5.70
2019-03-19T22:05:24.821Z,5.60
2019-03-19T22:07:58.629Z,5.60
2019-03-19T22:10:27.177Z,5.60
2019-03-19T22:12:55.596Z,5.60
2019-03-19T22:15:26.067Z,5.50
2019-03-19T22:17:54.542Z,5.50
2019-03-19T22:20:22.876Z,5.40
2019-03-19T22:22:51.490Z,5.40
2019-03-19T22:25:20.091Z,5.40
2019-03-19T22:27:48.540Z,5.40
2019-03-19T22:30:17.903Z,5.30
2019-03-19T22:32:46.384Z,5.30
2019-03-19T22:35:14.761Z,5.30
2019-03-19T22:37:43.141Z,5.20
2019-03-19T22:40:15.616Z,5.20
2019-03-19T22:42:44.017Z,5.20
2019-03-19T22:45:14.593Z,5.10
2019-03-19T22:47:43.062Z,5.10
2019-03-19T22:50:15.527Z,5.10
2019-03-19T22:52:43.882Z,5.10
2019-03-19T22:55:14.461Z,5.00
2019-03-19T22:57:42.956Z,5.00
2019-03-19T23:00:19.009Z,5.00
2019-03-19T23:02:47.506Z,5.00
2019-03-19T23:05:15.949Z,4.90
2019-03-19T23:07:44.410Z,4.90
2019-03-19T23:10:12.748Z,4.90
2019-03-19T23:12:41.384Z,4.80
2019-03-19T23:15:11.106Z,4.80
2019-03-19T23:17:39.635Z,4.80
2019-03-19T23:20:10.364Z,4.80
2019-03-19T23:22:38.726Z,4.80
2019-03-19T23:25:07.212Z,4.80
2019-03-19T23:27:35.637Z,4.70
2019-03-19T23:30:09.839Z,4.70
2019-03-19T23:32:38.407Z,4.70
2019-03-19T23:35:07.198Z,4.70
2019-03-19T23:37:35.676Z,4.60
2019-03-19T23:40:07.023Z,4.60
2019-03-19T23:42:35.483Z,4.60
2019-03-19T23:45:05.766Z,4.60
2019-03-19T23:47:33.577Z,4.60
2019-03-19T23:50:01.970Z,4.60
2019-03-19T23:52:30.337Z,4.50
2019-03-19T23:54:58.821Z,4.50
2019-03-19T23:57:27.159Z,4.40
2019-03-19T23:59:55.639Z,4.50
